sensor_id;sensor_type;location;lat;lon;timestamp;P1;durP1;ratioP1;P2;durP2;ratioP2
20713;SDS011;10518;50.742;4.226;2022-09-09T00:04:35;3.15;;;2.50;;
20713;SDS011;10518;50.742;4.226;2022-09-09T00:15:23;3.03;;;2.83;;
20713;SDS011;10518;50.742;4.226;2022-09-09T00:21:19;3.05;;;2.95;;
20713;SDS011;10518;50.742;4.226;2022-09-09T00:23:39;3.70;;;3.50;;
20713;SDS011;10518;50.742;4.226;2022-09-09T00:26:11;3.90;;;3.70;;
20713;SDS011;10518;50.742;4.226;2022-09-09T00:28:55;4.22;;;3.85;;
20713;SDS011;10518;50.742;4.226;2022-09-09T00:31:29;3.53;;;3.10;;
20713;SDS011;10518;50.742;4.226;2022-09-09T00:34:13;3.42;;;3.22;;
20713;SDS011;10518;50.742;4.226;2022-09-09T00:36:48;3.25;;;3.15;;
20713;SDS011;10518;50.742;4.226;2022-09-09T00:42:14;3.10;;;3.00;;
20713;SDS011;10518;50.742;4.226;2022-09-09T00:44:48;2.97;;;2.88;;
20713;SDS011;10518;50.742;4.226;2022-09-09T00:53:35;2.83;;;2.72;;
20713;SDS011;10518;50.742;4.226;2022-09-09T00:58:13;3.10;;;2.80;;
20713;SDS011;10518;50.742;4.226;2022-09-09T01:03:36;3.20;;;3.00;;
20713;SDS011;10518;50.742;4.226;2022-09-09T01:20:12;5.93;;;3.95;;
20713;SDS011;10518;50.742;4.226;2022-09-09T01:23:00;3.63;;;3.42;;
20713;SDS011;10518;50.742;4.226;2022-09-09T01:26:04;3.60;;;3.40;;
20713;SDS011;10518;50.742;4.226;2022-09-09T01:29:09;3.42;;;3.33;;
20713;SDS011;10518;50.742;4.226;2022-09-09T01:31:38;4.80;;;4.40;;
20713;SDS011;10518;50.742;4.226;2022-09-09T01:34:13;4.10;;;3.90;;
20713;SDS011;10518;50.742;4.226;2022-09-09T01:36:50;4.00;;;3.70;;
20713;SDS011;10518;50.742;4.226;2022-09-09T01:39:17;4.18;;;3.92;;
20713;SDS011;10518;50.742;4.226;2022-09-09T01:41:44;5.18;;;4.72;;
20713;SDS011;10518;50.742;4.226;2022-09-09T01:44:09;4.10;;;3.88;;
20713;SDS011;10518;50.742;4.226;2022-09-09T01:46:35;4.25;;;4.05;;
20713;SDS011;10518;50.742;4.226;2022-09-09T01:49:02;4.10;;;3.80;;
20713;SDS011;10518;50.742;4.226;2022-09-09T01:51:30;3.80;;;3.65;;
20713;SDS011;10518;50.742;4.226;2022-09-09T01:53:56;3.90;;;3.70;;
20713;SDS011;10518;50.742;4.226;2022-09-09T02:02:07;4.13;;;3.92;;
20713;SDS011;10518;50.742;4.226;2022-09-09T02:04:50;4.07;;;3.78;;
20713;SDS011;10518;50.742;4.226;2022-09-09T02:12:45;3.70;;;3.55;;
20713;SDS011;10518;50.742;4.226;2022-09-09T02:15:20;3.38;;;3.28;;
20713;SDS011;10518;50.742;4.226;2022-09-09T02:17:51;4.00;;;3.70;;
20713;SDS011;10518;50.742;4.226;2022-09-09T02:20:18;4.85;;;4.45;;
20713;SDS011;10518;50.742;4.226;2022-09-09T02:22:45;3.80;;;3.60;;
20713;SDS011;10518;50.742;4.226;2022-09-09T02:25:14;4.18;;;3.97;;
20713;SDS011;10518;50.742;4.226;2022-09-09T02:27:44;3.90;;;3.50;;
20713;SDS011;10518;50.742;4.226;2022-09-09T02:30:12;4.55;;;4.35;;
20713;SDS011;10518;50.742;4.226;2022-09-09T02:32:38;4.10;;;3.90;;
20713;SDS011;10518;50.742;4.226;2022-09-09T02:35:08;4.05;;;3.80;;
20713;SDS011;10518;50.742;4.226;2022-09-09T02:37:40;4.45;;;4.00;;
20713;SDS011;10518;50.742;4.226;2022-09-09T02:40:08;2.97;;;2.88;;
20713;SDS011;10518;50.742;4.226;2022-09-09T02:42:39;3.30;;;3.20;;
20713;SDS011;10518;50.742;4.226;2022-09-09T02:45:07;4.30;;;4.10;;
20713;SDS011;10518;50.742;4.226;2022-09-09T02:47:36;3.83;;;3.58;;
20713;SDS011;10518;50.742;4.226;2022-09-09T02:52:52;4.50;;;4.30;;
20713;SDS011;10518;50.742;4.226;2022-09-09T02:55:30;3.78;;;3.58;;
20713;SDS011;10518;50.742;4.226;2022-09-09T02:58:23;4.40;;;3.35;;
20713;SDS011;10518;50.742;4.226;2022-09-09T03:00:50;3.83;;;3.58;;
20713;SDS011;10518;50.742;4.226;2022-09-09T03:03:16;4.20;;;4.00;;
20713;SDS011;10518;50.742;4.226;2022-09-09T03:05:43;4.47;;;4.10;;
20713;SDS011;10518;50.742;4.226;2022-09-09T03:08:10;5.38;;;3.97;;
20713;SDS011;10518;50.742;4.226;2022-09-09T03:10:36;4.97;;;4.10;;
20713;SDS011;10518;50.742;4.226;2022-09-09T03:13:02;4.10;;;3.90;;
20713;SDS011;10518;50.742;4.226;2022-09-09T03:15:29;3.72;;;3.42;;
20713;SDS011;10518;50.742;4.226;2022-09-09T03:17:56;6.45;;;3.90;;
20713;SDS011;10518;50.742;4.226;2022-09-09T03:20:23;4.53;;;4.32;;
20713;SDS011;10518;50.742;4.226;2022-09-09T03:22:51;4.18;;;3.95;;
20713;SDS011;10518;50.742;4.226;2022-09-09T03:25:17;4.22;;;4.00;;
20713;SDS011;10518;50.742;4.226;2022-09-09T03:27:43;5.18;;;4.07;;
20713;SDS011;10518;50.742;4.226;2022-09-09T03:30:08;5.32;;;4.15;;
20713;SDS011;10518;50.742;4.226;2022-09-09T03:32:34;5.18;;;3.50;;
20713;SDS011;10518;50.742;4.226;2022-09-09T03:35:00;4.65;;;4.35;;
20713;SDS011;10518;50.742;4.226;2022-09-09T03:37:25;4.88;;;4.57;;
20713;SDS011;10518;50.742;4.226;2022-09-09T03:39:51;4.40;;;4.20;;
20713;SDS011;10518;50.742;4.226;2022-09-09T03:42:19;3.80;;;3.60;;
20713;SDS011;10518;50.742;4.226;2022-09-09T03:44:48;5.80;;;5.50;;
20713;SDS011;10518;50.742;4.226;2022-09-09T03:47:15;5.15;;;4.32;;
20713;SDS011;10518;50.742;4.226;2022-09-09T03:49:42;5.20;;;4.88;;
20713;SDS011;10518;50.742;4.226;2022-09-09T03:52:08;4.90;;;4.70;;
20713;SDS011;10518;50.742;4.226;2022-09-09T03:54:34;6.05;;;5.55;;
20713;SDS011;10518;50.742;4.226;2022-09-09T03:56:59;5.80;;;5.50;;
20713;SDS011;10518;50.742;4.226;2022-09-09T03:59:25;4.88;;;4.60;;
20713;SDS011;10518;50.742;4.226;2022-09-09T04:01:51;5.63;;;5.22;;
20713;SDS011;10518;50.742;4.226;2022-09-09T04:04:17;5.18;;;4.63;;
20713;SDS011;10518;50.742;4.226;2022-09-09T04:06:42;10.90;;;5.80;;
20713;SDS011;10518;50.742;4.226;2022-09-09T04:09:08;5.65;;;5.35;;
20713;SDS011;10518;50.742;4.226;2022-09-09T04:11:33;4.28;;;4.07;;
20713;SDS011;10518;50.742;4.226;2022-09-09T04:13:59;4.22;;;4.03;;
20713;SDS011;10518;50.742;4.226;2022-09-09T04:16:25;4.30;;;3.97;;
20713;SDS011;10518;50.742;4.226;2022-09-09T04:18:50;4.55;;;4.35;;
20713;SDS011;10518;50.742;4.226;2022-09-09T04:21:18;3.90;;;3.70;;
20713;SDS011;10518;50.742;4.226;2022-09-09T04:23:43;4.15;;;3.95;;
20713;SDS011;10518;50.742;4.226;2022-09-09T04:26:09;4.85;;;4.40;;
20713;SDS011;10518;50.742;4.226;2022-09-09T04:28:35;3.97;;;3.78;;
20713;SDS011;10518;50.742;4.226;2022-09-09T04:31:08;6.47;;;4.25;;
20713;SDS011;10518;50.742;4.226;2022-09-09T04:33:46;4.20;;;4.00;;
20713;SDS011;10518;50.742;4.226;2022-09-09T04:36:12;4.15;;;3.95;;
20713;SDS011;10518;50.742;4.226;2022-09-09T04:38:38;5.40;;;4.28;;
20713;SDS011;10518;50.742;4.226;2022-09-09T04:41:04;3.80;;;3.60;;
20713;SDS011;10518;50.742;4.226;2022-09-09T04:43:30;5.30;;;3.75;;
20713;SDS011;10518;50.742;4.226;2022-09-09T04:45:56;4.93;;;4.50;;
20713;SDS011;10518;50.742;4.226;2022-09-09T04:48:22;3.83;;;3.58;;
20713;SDS011;10518;50.742;4.226;2022-09-09T04:51:20;4.20;;;3.90;;
20713;SDS011;10518;50.742;4.226;2022-09-09T04:53:39;6.82;;;6.22;;
20713;SDS011;10518;50.742;4.226;2022-09-09T04:56:06;5.22;;;4.82;;
20713;SDS011;10518;50.742;4.226;2022-09-09T04:58:35;12.90;;;5.65;;
20713;SDS011;10518;50.742;4.226;2022-09-09T05:01:23;4.38;;;4.18;;
20713;SDS011;10518;50.742;4.226;2022-09-09T05:03:49;4.00;;;3.80;;
20713;SDS011;10518;50.742;4.226;2022-09-09T05:06:16;5.07;;;4.80;;
20713;SDS011;10518;50.742;4.226;2022-09-09T05:08:43;4.93;;;4.55;;
20713;SDS011;10518;50.742;4.226;2022-09-09T05:11:16;5.20;;;4.90;;
20713;SDS011;10518;50.742;4.226;2022-09-09T05:13:49;4.93;;;4.63;;
20713;SDS011;10518;50.742;4.226;2022-09-09T05:16:16;4.03;;;3.83;;
20713;SDS011;10518;50.742;4.226;2022-09-09T05:18:42;4.65;;;4.35;;
20713;SDS011;10518;50.742;4.226;2022-09-09T05:21:08;4.70;;;4.50;;
20713;SDS011;10518;50.742;4.226;2022-09-09T05:23:35;4.60;;;4.13;;
20713;SDS011;10518;50.742;4.226;2022-09-09T05:26:02;3.85;;;3.65;;
20713;SDS011;10518;50.742;4.226;2022-09-09T05:28:28;4.00;;;3.70;;
20713;SDS011;10518;50.742;4.226;2022-09-09T05:30:56;4.95;;;3.95;;
20713;SDS011;10518;50.742;4.226;2022-09-09T05:33:25;3.53;;;3.33;;
20713;SDS011;10518;50.742;4.226;2022-09-09T05:35:56;7.38;;;4.13;;
20713;SDS011;10518;50.742;4.226;2022-09-09T05:38:22;3.92;;;3.63;;
20713;SDS011;10518;50.742;4.226;2022-09-09T05:40:50;5.82;;;2.97;;
20713;SDS011;10518;50.742;4.226;2022-09-09T05:43:17;3.75;;;3.05;;
20713;SDS011;10518;50.742;4.226;2022-09-09T05:45:44;3.22;;;3.00;;
20713;SDS011;10518;50.742;4.226;2022-09-09T05:48:12;3.38;;;3.08;;
20713;SDS011;10518;50.742;4.226;2022-09-09T05:50:40;3.40;;;3.10;;
20713;SDS011;10518;50.742;4.226;2022-09-09T05:53:05;2.92;;;2.65;;
20713;SDS011;10518;50.742;4.226;2022-09-09T05:55:31;2.55;;;2.40;;
20713;SDS011;10518;50.742;4.226;2022-09-09T05:57:56;2.63;;;2.45;;
20713;SDS011;10518;50.742;4.226;2022-09-09T06:00:22;2.30;;;2.20;;
20713;SDS011;10518;50.742;4.226;2022-09-09T06:02:51;2.83;;;1.90;;
20713;SDS011;10518;50.742;4.226;2022-09-09T06:05:17;4.20;;;1.90;;
20713;SDS011;10518;50.742;4.226;2022-09-09T06:07:43;2.17;;;1.98;;
20713;SDS011;10518;50.742;4.226;2022-09-09T06:10:09;1.40;;;1.30;;
20713;SDS011;10518;50.742;4.226;2022-09-09T06:12:41;1.75;;;1.38;;
20713;SDS011;10518;50.742;4.226;2022-09-09T06:15:06;1.15;;;1.08;;
20713;SDS011;10518;50.742;4.226;2022-09-09T06:17:34;3.67;;;1.25;;
20713;SDS011;10518;50.742;4.226;2022-09-09T06:19:59;1.85;;;1.73;;
20713;SDS011;10518;50.742;4.226;2022-09-09T06:22:25;4.47;;;1.85;;
20713;SDS011;10518;50.742;4.226;2022-09-09T06:24:50;2.67;;;1.10;;
20713;SDS011;10518;50.742;4.226;2022-09-09T06:27:16;2.65;;;1.13;;
20713;SDS011;10518;50.742;4.226;2022-09-09T06:29:41;3.95;;;1.60;;
20713;SDS011;10518;50.742;4.226;2022-09-09T06:32:07;3.83;;;1.55;;
20713;SDS011;10518;50.742;4.226;2022-09-09T06:34:33;5.70;;;1.63;;
20713;SDS011;10518;50.742;4.226;2022-09-09T06:37:00;1.95;;;1.25;;
20713;SDS011;10518;50.742;4.226;2022-09-09T06:39:26;1.50;;;1.40;;
20713;SDS011;10518;50.742;4.226;2022-09-09T06:41:51;1.95;;;1.70;;
20713;SDS011;10518;50.742;4.226;2022-09-09T06:44:18;2.35;;;1.42;;
20713;SDS011;10518;50.742;4.226;2022-09-09T06:46:44;3.67;;;1.50;;
20713;SDS011;10518;50.742;4.226;2022-09-09T06:49:12;1.58;;;1.20;;
20713;SDS011;10518;50.742;4.226;2022-09-09T06:51:38;1.65;;;1.27;;
20713;SDS011;10518;50.742;4.226;2022-09-09T06:54:11;1.40;;;1.10;;
20713;SDS011;10518;50.742;4.226;2022-09-09T06:56:38;1.33;;;1.05;;
20713;SDS011;10518;50.742;4.226;2022-09-09T06:59:07;4.22;;;2.50;;
20713;SDS011;10518;50.742;4.226;2022-09-09T07:01:34;1.75;;;1.20;;
20713;SDS011;10518;50.742;4.226;2022-09-09T07:04:02;1.23;;;1.20;;
20713;SDS011;10518;50.742;4.226;2022-09-09T07:06:30;1.90;;;1.00;;
20713;SDS011;10518;50.742;4.226;2022-09-09T07:08:58;2.95;;;1.10;;
20713;SDS011;10518;50.742;4.226;2022-09-09T07:11:26;2.75;;;1.25;;
20713;SDS011;10518;50.742;4.226;2022-09-09T07:13:54;1.15;;;1.15;;
20713;SDS011;10518;50.742;4.226;2022-09-09T07:16:22;1.00;;;0.95;;
20713;SDS011;10518;50.742;4.226;2022-09-09T07:18:52;10.15;;;1.60;;
20713;SDS011;10518;50.742;4.226;2022-09-09T07:21:20;3.28;;;1.05;;
20713;SDS011;10518;50.742;4.226;2022-09-09T07:23:46;1.10;;;1.10;;
20713;SDS011;10518;50.742;4.226;2022-09-09T07:26:19;4.43;;;1.83;;
20713;SDS011;10518;50.742;4.226;2022-09-09T07:28:46;2.75;;;1.90;;
20713;SDS011;10518;50.742;4.226;2022-09-09T07:31:14;2.70;;;2.50;;
20713;SDS011;10518;50.742;4.226;2022-09-09T07:33:41;3.03;;;2.58;;
20713;SDS011;10518;50.742;4.226;2022-09-09T07:36:12;4.10;;;2.50;;
20713;SDS011;10518;50.742;4.226;2022-09-09T07:38:43;2.30;;;2.20;;
20713;SDS011;10518;50.742;4.226;2022-09-09T07:41:12;2.47;;;2.38;;
20713;SDS011;10518;50.742;4.226;2022-09-09T07:43:41;2.83;;;2.63;;
20713;SDS011;10518;50.742;4.226;2022-09-09T07:46:08;4.07;;;3.78;;
20713;SDS011;10518;50.742;4.226;2022-09-09T07:48:34;5.97;;;3.53;;
20713;SDS011;10518;50.742;4.226;2022-09-09T07:51:08;5.13;;;3.30;;
20713;SDS011;10518;50.742;4.226;2022-09-09T07:53:34;2.65;;;2.55;;
20713;SDS011;10518;50.742;4.226;2022-09-09T07:56:08;3.03;;;2.60;;
20713;SDS011;10518;50.742;4.226;2022-09-09T07:58:36;3.13;;;2.58;;
20713;SDS011;10518;50.742;4.226;2022-09-09T08:01:09;4.28;;;2.15;;
20713;SDS011;10518;50.742;4.226;2022-09-09T08:03:37;4.40;;;2.30;;
20713;SDS011;10518;50.742;4.226;2022-09-09T08:06:03;3.00;;;2.40;;
20713;SDS011;10518;50.742;4.226;2022-09-09T08:08:32;3.17;;;2.13;;
20713;SDS011;10518;50.742;4.226;2022-09-09T08:11:05;2.70;;;1.83;;
20713;SDS011;10518;50.742;4.226;2022-09-09T08:13:40;2.08;;;1.75;;
20713;SDS011;10518;50.742;4.226;2022-09-09T08:16:11;2.75;;;1.85;;
20713;SDS011;10518;50.742;4.226;2022-09-09T08:18:38;3.63;;;1.55;;
20713;SDS011;10518;50.742;4.226;2022-09-09T08:21:08;1.50;;;1.40;;
20713;SDS011;10518;50.742;4.226;2022-09-09T08:23:37;3.60;;;1.30;;
20713;SDS011;10518;50.742;4.226;2022-09-09T08:26:16;2.55;;;1.40;;
20713;SDS011;10518;50.742;4.226;2022-09-09T08:28:47;2.30;;;2.10;;
20713;SDS011;10518;50.742;4.226;2022-09-09T08:31:19;2.10;;;1.45;;
20713;SDS011;10518;50.742;4.226;2022-09-09T08:33:59;3.08;;;1.77;;
20713;SDS011;10518;50.742;4.226;2022-09-09T08:36:27;2.88;;;2.67;;
20713;SDS011;10518;50.742;4.226;2022-09-09T08:38:55;2.00;;;1.90;;
20713;SDS011;10518;50.742;4.226;2022-09-09T08:46:42;2.28;;;2.17;;
20713;SDS011;10518;50.742;4.226;2022-09-09T08:51:50;2.15;;;2.05;;
20713;SDS011;10518;50.742;4.226;2022-09-09T08:54:20;6.03;;;3.50;;
20713;SDS011;10518;50.742;4.226;2022-09-09T08:56:46;1.90;;;1.75;;
20713;SDS011;10518;50.742;4.226;2022-09-09T08:59:14;2.40;;;2.20;;
20713;SDS011;10518;50.742;4.226;2022-09-09T09:04:38;2.67;;;2.47;;
20713;SDS011;10518;50.742;4.226;2022-09-09T09:09:51;4.05;;;2.55;;
20713;SDS011;10518;50.742;4.226;2022-09-09T09:12:35;2.92;;;2.70;;
20713;SDS011;10518;50.742;4.226;2022-09-09T09:15:25;2.50;;;2.33;;
20713;SDS011;10518;50.742;4.226;2022-09-09T09:17:55;2.72;;;2.63;;
20713;SDS011;10518;50.742;4.226;2022-09-09T09:20:23;4.28;;;3.17;;
20713;SDS011;10518;50.742;4.226;2022-09-09T09:23:09;3.33;;;3.10;;
20713;SDS011;10518;50.742;4.226;2022-09-09T09:25:46;3.03;;;2.78;;
20713;SDS011;10518;50.742;4.226;2022-09-09T09:31:04;4.13;;;3.83;;
20713;SDS011;10518;50.742;4.226;2022-09-09T09:33:38;5.78;;;3.55;;
20713;SDS011;10518;50.742;4.226;2022-09-09T09:36:11;8.43;;;4.82;;
20713;SDS011;10518;50.742;4.226;2022-09-09T09:38:40;3.45;;;3.22;;
20713;SDS011;10518;50.742;4.226;2022-09-09T09:41:17;2.92;;;2.60;;
20713;SDS011;10518;50.742;4.226;2022-09-09T09:43:59;4.97;;;4.60;;
20713;SDS011;10518;50.742;4.226;2022-09-09T09:46:25;4.22;;;3.97;;
20713;SDS011;10518;50.742;4.226;2022-09-09T09:51:30;3.50;;;3.20;;
20713;SDS011;10518;50.742;4.226;2022-09-09T09:54:08;2.40;;;2.30;;
20713;SDS011;10518;50.742;4.226;2022-09-09T09:56:38;2.40;;;2.30;;
20713;SDS011;10518;50.742;4.226;2022-09-09T09:59:05;3.50;;;2.92;;
20713;SDS011;10518;50.742;4.226;2022-09-09T10:01:43;3.72;;;3.10;;
20713;SDS011;10518;50.742;4.226;2022-09-09T10:04:14;2.40;;;2.20;;
20713;SDS011;10518;50.742;4.226;2022-09-09T10:06:46;1.55;;;1.55;;
20713;SDS011;10518;50.742;4.226;2022-09-09T10:09:20;2.53;;;1.90;;
20713;SDS011;10518;50.742;4.226;2022-09-09T10:11:52;4.03;;;2.65;;
20713;SDS011;10518;50.742;4.226;2022-09-09T10:17:19;3.30;;;3.00;;
20713;SDS011;10518;50.742;4.226;2022-09-09T10:20:17;2.88;;;2.65;;
20713;SDS011;10518;50.742;4.226;2022-09-09T10:22:44;3.10;;;3.00;;
20713;SDS011;10518;50.742;4.226;2022-09-09T10:33:16;4.35;;;2.75;;
20713;SDS011;10518;50.742;4.226;2022-09-09T10:36:03;3.25;;;2.95;;
20713;SDS011;10518;50.742;4.226;2022-09-09T10:38:39;3.88;;;3.67;;
20713;SDS011;10518;50.742;4.226;2022-09-09T10:52:18;3.17;;;1.98;;
20713;SDS011;10518;50.742;4.226;2022-09-09T10:57:28;2.08;;;1.98;;
20713;SDS011;10518;50.742;4.226;2022-09-09T11:00:03;2.00;;;1.90;;
20713;SDS011;10518;50.742;4.226;2022-09-09T11:02:31;2.22;;;1.67;;
20713;SDS011;10518;50.742;4.226;2022-09-09T11:05:08;1.58;;;1.48;;
20713;SDS011;10518;50.742;4.226;2022-09-09T11:07:52;4.57;;;1.35;;
20713;SDS011;10518;50.742;4.226;2022-09-09T11:13:07;5.10;;;1.73;;
20713;SDS011;10518;50.742;4.226;2022-09-09T11:15:43;2.08;;;1.63;;
20713;SDS011;10518;50.742;4.226;2022-09-09T11:18:17;6.50;;;1.45;;
20713;SDS011;10518;50.742;4.226;2022-09-09T11:20:47;1.63;;;1.52;;
20713;SDS011;10518;50.742;4.226;2022-09-09T11:23:18;1.30;;;1.20;;
20713;SDS011;10518;50.742;4.226;2022-09-09T11:25:55;1.30;;;1.20;;
20713;SDS011;10518;50.742;4.226;2022-09-09T11:28:32;1.40;;;1.02;;
20713;SDS011;10518;50.742;4.226;2022-09-09T11:31:18;2.17;;;1.42;;
20713;SDS011;10518;50.742;4.226;2022-09-09T11:42:19;0.82;;;0.80;;
20713;SDS011;10518;50.742;4.226;2022-09-09T11:44:47;1.88;;;1.10;;
20713;SDS011;10518;50.742;4.226;2022-09-09T12:00:36;4.38;;;0.90;;
20713;SDS011;10518;50.742;4.226;2022-09-09T12:03:05;2.38;;;1.38;;
20713;SDS011;10518;50.742;4.226;2022-09-09T12:05:40;2.75;;;0.93;;
20713;SDS011;10518;50.742;4.226;2022-09-09T12:08:10;2.83;;;1.00;;
20713;SDS011;10518;50.742;4.226;2022-09-09T12:10:52;0.70;;;0.70;;
20713;SDS011;10518;50.742;4.226;2022-09-09T12:13:21;1.92;;;1.15;;
20713;SDS011;10518;50.742;4.226;2022-09-09T12:15:49;3.25;;;0.80;;
20713;SDS011;10518;50.742;4.226;2022-09-09T12:18:37;3.17;;;1.20;;
20713;SDS011;10518;50.742;4.226;2022-09-09T12:26:40;0.70;;;0.70;;
20713;SDS011;10518;50.742;4.226;2022-09-09T12:29:18;5.47;;;1.13;;
20713;SDS011;10518;50.742;4.226;2022-09-09T12:40:00;0.73;;;0.63;;
20713;SDS011;10518;50.742;4.226;2022-09-09T12:42:28;0.80;;;0.80;;
20713;SDS011;10518;50.742;4.226;2022-09-09T12:44:55;2.05;;;0.77;;
20713;SDS011;10518;50.742;4.226;2022-09-09T12:47:35;0.95;;;0.73;;
20713;SDS011;10518;50.742;4.226;2022-09-09T12:50:35;0.65;;;0.65;;
20713;SDS011;10518;50.742;4.226;2022-09-09T12:53:21;1.63;;;0.70;;
20713;SDS011;10518;50.742;4.226;2022-09-09T12:55:52;0.85;;;0.80;;
20713;SDS011;10518;50.742;4.226;2022-09-09T12:58:25;1.00;;;0.70;;
20713;SDS011;10518;50.742;4.226;2022-09-09T13:00:54;0.80;;;0.80;;
20713;SDS011;10518;50.742;4.226;2022-09-09T13:03:21;0.75;;;0.55;;
20713;SDS011;10518;50.742;4.226;2022-09-09T13:05:47;0.80;;;0.75;;
20713;SDS011;10518;50.742;4.226;2022-09-09T13:08:15;1.80;;;0.70;;
20713;SDS011;10518;50.742;4.226;2022-09-09T13:11:00;1.10;;;0.65;;
20713;SDS011;10518;50.742;4.226;2022-09-09T13:15:58;1.35;;;0.93;;
20713;SDS011;10518;50.742;4.226;2022-09-09T13:18:27;1.27;;;0.65;;
20713;SDS011;10518;50.742;4.226;2022-09-09T13:20:55;0.43;;;0.43;;
20713;SDS011;10518;50.742;4.226;2022-09-09T13:23:23;3.03;;;0.60;;
20713;SDS011;10518;50.742;4.226;2022-09-09T13:25:56;0.63;;;0.63;;
20713;SDS011;10518;50.742;4.226;2022-09-09T13:28:24;0.50;;;0.50;;
20713;SDS011;10518;50.742;4.226;2022-09-09T13:30:58;1.15;;;0.52;;
20713;SDS011;10518;50.742;4.226;2022-09-09T13:33:35;1.67;;;0.70;;
20713;SDS011;10518;50.742;4.226;2022-09-09T13:36:05;2.25;;;0.98;;
20713;SDS011;10518;50.742;4.226;2022-09-09T13:38:38;1.15;;;0.60;;
20713;SDS011;10518;50.742;4.226;2022-09-09T13:41:23;4.05;;;0.88;;
20713;SDS011;10518;50.742;4.226;2022-09-09T13:43:59;1.30;;;0.50;;
20713;SDS011;10518;50.742;4.226;2022-09-09T13:54:00;2.75;;;0.60;;
20713;SDS011;10518;50.742;4.226;2022-09-09T13:56:26;2.22;;;0.60;;
20713;SDS011;10518;50.742;4.226;2022-09-09T13:58:52;0.50;;;0.50;;
20713;SDS011;10518;50.742;4.226;2022-09-09T14:01:17;1.55;;;0.80;;
20713;SDS011;10518;50.742;4.226;2022-09-09T14:03:43;0.60;;;0.50;;
20713;SDS011;10518;50.742;4.226;2022-09-09T14:06:09;1.25;;;0.80;;
20713;SDS011;10518;50.742;4.226;2022-09-09T14:08:36;0.57;;;0.47;;
20713;SDS011;10518;50.742;4.226;2022-09-09T14:11:02;0.88;;;0.50;;
20713;SDS011;10518;50.742;4.226;2022-09-09T14:13:28;2.92;;;0.57;;
20713;SDS011;10518;50.742;4.226;2022-09-09T14:15:54;0.70;;;0.70;;
20713;SDS011;10518;50.742;4.226;2022-09-09T14:18:19;1.50;;;0.75;;
20713;SDS011;10518;50.742;4.226;2022-09-09T14:20:47;1.55;;;0.70;;
20713;SDS011;10518;50.742;4.226;2022-09-09T14:23:13;2.30;;;0.98;;
20713;SDS011;10518;50.742;4.226;2022-09-09T14:25:39;1.33;;;0.70;;
20713;SDS011;10518;50.742;4.226;2022-09-09T14:28:07;1.55;;;0.70;;
20713;SDS011;10518;50.742;4.226;2022-09-09T14:30:37;1.33;;;0.90;;
20713;SDS011;10518;50.742;4.226;2022-09-09T14:33:05;0.85;;;0.50;;
20713;SDS011;10518;50.742;4.226;2022-09-09T14:35:31;0.40;;;0.40;;
20713;SDS011;10518;50.742;4.226;2022-09-09T14:37:58;1.13;;;0.80;;
20713;SDS011;10518;50.742;4.226;2022-09-09T14:40:25;0.85;;;0.63;;
20713;SDS011;10518;50.742;4.226;2022-09-09T14:42:52;2.10;;;0.63;;
20713;SDS011;10518;50.742;4.226;2022-09-09T14:45:18;3.17;;;0.40;;
20713;SDS011;10518;50.742;4.226;2022-09-09T14:47:44;1.88;;;0.70;;
20713;SDS011;10518;50.742;4.226;2022-09-09T14:50:10;3.88;;;0.90;;
20713;SDS011;10518;50.742;4.226;2022-09-09T14:52:37;0.50;;;0.50;;
20713;SDS011;10518;50.742;4.226;2022-09-09T14:55:03;0.63;;;0.50;;
20713;SDS011;10518;50.742;4.226;2022-09-09T14:57:29;1.45;;;1.15;;
20713;SDS011;10518;50.742;4.226;2022-09-09T14:59:55;0.57;;;0.57;;
20713;SDS011;10518;50.742;4.226;2022-09-09T15:02:21;0.65;;;0.65;;
20713;SDS011;10518;50.742;4.226;2022-09-09T15:04:47;2.50;;;0.75;;
20713;SDS011;10518;50.742;4.226;2022-09-09T15:07:14;2.33;;;0.90;;
20713;SDS011;10518;50.742;4.226;2022-09-09T15:09:41;1.30;;;0.60;;
20713;SDS011;10518;50.742;4.226;2022-09-09T15:12:07;0.85;;;0.50;;
20713;SDS011;10518;50.742;4.226;2022-09-09T15:14:32;0.40;;;0.40;;
20713;SDS011;10518;50.742;4.226;2022-09-09T15:16:59;2.45;;;0.65;;
20713;SDS011;10518;50.742;4.226;2022-09-09T15:19:24;0.60;;;0.57;;
20713;SDS011;10518;50.742;4.226;2022-09-09T15:21:50;0.95;;;0.47;;
20713;SDS011;10518;50.742;4.226;2022-09-09T15:24:16;1.20;;;0.60;;
20713;SDS011;10518;50.742;4.226;2022-09-09T15:26:42;1.92;;;0.63;;
20713;SDS011;10518;50.742;4.226;2022-09-09T15:29:07;0.90;;;0.80;;
20713;SDS011;10518;50.742;4.226;2022-09-09T15:31:34;0.63;;;0.63;;
20713;SDS011;10518;50.742;4.226;2022-09-09T15:34:01;1.00;;;0.70;;
20713;SDS011;10518;50.742;4.226;2022-09-09T15:39:01;1.85;;;0.60;;
20713;SDS011;10518;50.742;4.226;2022-09-09T15:41:28;1.65;;;0.80;;
20713;SDS011;10518;50.742;4.226;2022-09-09T15:43:56;0.60;;;0.60;;
20713;SDS011;10518;50.742;4.226;2022-09-09T15:46:35;0.40;;;0.40;;
20713;SDS011;10518;50.742;4.226;2022-09-09T15:51:36;0.52;;;0.45;;
20713;SDS011;10518;50.742;4.226;2022-09-09T15:54:03;2.15;;;0.63;;
20713;SDS011;10518;50.742;4.226;2022-09-09T15:56:29;1.70;;;0.60;;
20713;SDS011;10518;50.742;4.226;2022-09-09T15:58:56;1.25;;;0.75;;
20713;SDS011;10518;50.742;4.226;2022-09-09T16:01:22;0.60;;;0.60;;
20713;SDS011;10518;50.742;4.226;2022-09-09T16:03:49;0.60;;;0.50;;
20713;SDS011;10518;50.742;4.226;2022-09-09T16:06:16;0.60;;;0.60;;
20713;SDS011;10518;50.742;4.226;2022-09-09T16:08:44;1.42;;;1.25;;
20713;SDS011;10518;50.742;4.226;2022-09-09T16:11:15;1.05;;;0.60;;
20713;SDS011;10518;50.742;4.226;2022-09-09T16:13:46;1.23;;;0.80;;
20713;SDS011;10518;50.742;4.226;2022-09-09T16:16:14;2.85;;;0.70;;
20713;SDS011;10518;50.742;4.226;2022-09-09T16:18:42;1.15;;;1.02;;
20713;SDS011;10518;50.742;4.226;2022-09-09T16:21:12;0.52;;;0.52;;
20713;SDS011;10518;50.742;4.226;2022-09-09T16:23:40;2.05;;;0.50;;
20713;SDS011;10518;50.742;4.226;2022-09-09T16:26:06;4.82;;;0.55;;
20713;SDS011;10518;50.742;4.226;2022-09-09T16:28:31;0.52;;;0.40;;
20713;SDS011;10518;50.742;4.226;2022-09-09T16:30:57;0.55;;;0.40;;
20713;SDS011;10518;50.742;4.226;2022-09-09T16:33:26;1.42;;;0.80;;
20713;SDS011;10518;50.742;4.226;2022-09-09T16:35:51;0.55;;;0.50;;
20713;SDS011;10518;50.742;4.226;2022-09-09T16:38:17;1.92;;;0.80;;
20713;SDS011;10518;50.742;4.226;2022-09-09T16:40:42;0.90;;;0.90;;
20713;SDS011;10518;50.742;4.226;2022-09-09T16:43:08;1.35;;;1.27;;
20713;SDS011;10518;50.742;4.226;2022-09-09T16:45:41;1.17;;;1.08;;
20713;SDS011;10518;50.742;4.226;2022-09-09T16:48:10;1.60;;;1.50;;
20713;SDS011;10518;50.742;4.226;2022-09-09T16:50:36;1.85;;;1.35;;
20713;SDS011;10518;50.742;4.226;2022-09-09T16:53:02;2.72;;;1.52;;
20713;SDS011;10518;50.742;4.226;2022-09-09T16:55:31;0.40;;;0.40;;
20713;SDS011;10518;50.742;4.226;2022-09-09T16:57:57;0.65;;;0.50;;
20713;SDS011;10518;50.742;4.226;2022-09-09T17:00:22;0.40;;;0.40;;
20713;SDS011;10518;50.742;4.226;2022-09-09T17:02:48;1.83;;;0.80;;
20713;SDS011;10518;50.742;4.226;2022-09-09T17:05:14;1.45;;;0.30;;
20713;SDS011;10518;50.742;4.226;2022-09-09T17:07:39;1.33;;;0.60;;
20713;SDS011;10518;50.742;4.226;2022-09-09T17:10:05;1.58;;;1.05;;
20713;SDS011;10518;50.742;4.226;2022-09-09T17:12:32;1.98;;;0.50;;
20713;SDS011;10518;50.742;4.226;2022-09-09T17:14:57;1.08;;;0.52;;
20713;SDS011;10518;50.742;4.226;2022-09-09T17:17:24;1.75;;;0.70;;
20713;SDS011;10518;50.742;4.226;2022-09-09T17:19:51;0.40;;;0.40;;
20713;SDS011;10518;50.742;4.226;2022-09-09T17:22:17;2.75;;;0.70;;
20713;SDS011;10518;50.742;4.226;2022-09-09T17:24:43;1.20;;;0.60;;
20713;SDS011;10518;50.742;4.226;2022-09-09T17:27:09;7.15;;;0.75;;
20713;SDS011;10518;50.742;4.226;2022-09-09T17:29:34;1.58;;;0.52;;
20713;SDS011;10518;50.742;4.226;2022-09-09T17:32:03;2.55;;;0.60;;
20713;SDS011;10518;50.742;4.226;2022-09-09T17:34:33;1.27;;;0.60;;
20713;SDS011;10518;50.742;4.226;2022-09-09T17:36:59;2.50;;;0.70;;